Time,TemperatureF,DewpointF,PressureIn,WindDirection,WindDirectionDegrees,WindSpeedMPH,WindSpeedGustMPH,Humidity,HourlyPrecipIn,Conditions,Clouds,dailyrainin,SoftwareType,DateUTC
2013-01-16 00:00:00,51.3,37.8,29.44,South,180,4.6,4.6,60,0.00,CLR,OVC,0.00,WeatherDisplay:10.37,2013-01-15 22:00:00,
2013-01-16 00:05:00,51.1,38.1,29.44,NE,45,5.8,5.8,61,0.00,CLR,OVC,0.00,WeatherDisplay:10.37,2013-01-15 22:05:00,
2013-01-16 00:10:00,51.1,38.1,29.44,North,0,5.8,5.8,61,0.00,CLR,OVC,0.00,WeatherDisplay:10.37,2013-01-15 22:10:00,
2013-01-16 00:15:00,51.1,38.1,29.44,NW,315,3.5,0.0,61,0.00,CLR,OVC,0.00,WeatherDisplay:10.37,2013-01-15 22:15:00,
2013-01-16 00:20:00,50.9,37.9,29.44,NW,315,4.6,4.6,61,0.00,CLR,OVC,0.00,WeatherDisplay:10.37,2013-01-15 22:20:00,
2013-01-16 00:25:00,50.9,37.9,29.44,East,90,3.5,3.5,61,0.00,CLR,OVC,0.00,WeatherDisplay:10.37,2013-01-15 22:25:00,
2013-01-16 00:30:00,50.9,37.5,29.44,North,0,3.5,3.5,60,0.00,CLR,OVC,0.00,WeatherDisplay:10.37,2013-01-15 22:30:00,
2013-01-16 00:35:00,50.9,37.5,29.43,East,90,5.8,5.8,60,0.00,CLR,OVC,0.00,WeatherDisplay:10.37,2013-01-15 22:35:00,
2013-01-16 00:40:00,50.7,37.3,29.43,South,180,4.6,4.6,60,0.00,CLR,OVC,0.00,WeatherDisplay:10.37,2013-01-15 22:40:00,
2013-01-16 00:45:00,50.8,37.4,29.43,ESE,123,1.0,5.0,60,0.00,CLR,OVC,0.00,WeatherDisplay:10.37,2013-01-15 22:45:00,
2013-01-16 00:50:00,50.7,37.3,29.43,East,90,3.5,3.5,60,0.00,CLR,OVC,0.00,WeatherDisplay:10.37,2013-01-15 22:50:00,
2013-01-16 00:55:00,50.7,37.3,29.42,East,101,0.0,4.0,60,0.00,CLR,OVC,0.00,WeatherDisplay:10.37,2013-01-15 22:55:00,
2013-01-16 01:00:00,50.5,37.2,29.42,ENE,61,0.0,3.0,60,0.00,CLR,OVC,0.00,WeatherDisplay:10.37,2013-01-15 23:00:00,
2013-01-16 01:05:00,50.5,37.2,29.42,SE,135,2.3,2.3,60,0.00,CLR,OVC,0.00,WeatherDisplay:10.37,2013-01-15 23:05:00,
2013-01-16 01:10:00,50.4,37.4,29.42,SE,135,2.3,0.0,61,0.00,CLR,OVC,0.00,WeatherDisplay:10.37,2013-01-15 23:10:00,
2013-01-16 01:15:00,50.4,37.4,29.42,SE,135,4.6,4.6,61,0.00,CLR,OVC,0.00,WeatherDisplay:10.37,2013-01-15 23:15:00,
2013-01-16 01:20:00,50.2,37.2,29.42,SE,135,4.6,4.6,61,0.00,CLR,OVC,0.00,WeatherDisplay:10.37,2013-01-15 23:20:00,
2013-01-16 01:25:00,50.4,37.4,29.42,East,90,2.2,0.0,61,0.00,CLR,OVC,0.00,WeatherDisplay:10.37,2013-01-15 23:25:00,
2013-01-16 01:30:00,50.4,37.4,29.42,SE,135,5.4,5.4,61,0.00,CLR,OVC,0.00,WeatherDisplay:10.37,2013-01-15 23:30:00,
2013-01-16 01:35:00,50.4,37.0,29.42,East,90,5.8,5.8,60,0.00,CLR,OVC,0.00,WeatherDisplay:10.37,2013-01-15 23:35:00,
2013-01-16 01:40:00,50.4,37.0,29.41,North,0,8.1,8.1,60,0.00,CLR,OVC,0.00,WeatherDisplay:10.37,2013-01-15 23:40:00,